sensor_id;sensor_type;location;lat;lon;timestamp;temperature;humidity
16301;DHT22;8258;51.020;4.248;2023-09-07T00:01:33;19.20;99.90
16301;DHT22;8258;51.020;4.248;2023-09-07T00:04:00;19.10;99.90
16301;DHT22;8258;51.020;4.248;2023-09-07T00:06:30;19.10;99.90
16301;DHT22;8258;51.020;4.248;2023-09-07T00:08:57;19.10;99.90
16301;DHT22;8258;51.020;4.248;2023-09-07T00:11:24;19.10;99.90
16301;DHT22;8258;51.020;4.248;2023-09-07T00:13:51;19.00;99.90
16301;DHT22;8258;51.020;4.248;2023-09-07T00:16:18;19.00;99.90
16301;DHT22;8258;51.020;4.248;2023-09-07T00:18:45;19.00;99.90
16301;DHT22;8258;51.020;4.248;2023-09-07T00:21:12;19.00;99.90
16301;DHT22;8258;51.020;4.248;2023-09-07T00:23:41;19.00;99.90
16301;DHT22;8258;51.020;4.248;2023-09-07T00:26:08;19.00;99.90
16301;DHT22;8258;51.020;4.248;2023-09-07T00:28:36;19.00;99.90
16301;DHT22;8258;51.020;4.248;2023-09-07T00:31:03;18.90;99.90
16301;DHT22;8258;51.020;4.248;2023-09-07T00:33:30;18.80;99.90
16301;DHT22;8258;51.020;4.248;2023-09-07T00:35:57;18.90;99.90
16301;DHT22;8258;51.020;4.248;2023-09-07T00:38:24;18.90;99.90
16301;DHT22;8258;51.020;4.248;2023-09-07T00:40:52;18.80;99.90
16301;DHT22;8258;51.020;4.248;2023-09-07T00:43:19;18.70;99.90
16301;DHT22;8258;51.020;4.248;2023-09-07T00:45:47;18.70;99.90
16301;DHT22;8258;51.020;4.248;2023-09-07T00:48:15;18.60;99.90
16301;DHT22;8258;51.020;4.248;2023-09-07T00:50:42;18.60;99.90
16301;DHT22;8258;51.020;4.248;2023-09-07T00:53:10;18.60;99.90
16301;DHT22;8258;51.020;4.248;2023-09-07T00:55:37;18.60;99.90
16301;DHT22;8258;51.020;4.248;2023-09-07T00:58:06;18.50;99.90
16301;DHT22;8258;51.020;4.248;2023-09-07T01:00:34;18.50;99.90
16301;DHT22;8258;51.020;4.248;2023-09-07T01:03:02;18.40;99.90
16301;DHT22;8258;51.020;4.248;2023-09-07T01:05:34;18.40;99.90
16301;DHT22;8258;51.020;4.248;2023-09-07T01:08:10;18.40;99.90
16301;DHT22;8258;51.020;4.248;2023-09-07T01:10:38;18.40;99.90
16301;DHT22;8258;51.020;4.248;2023-09-07T01:13:07;18.40;99.90
16301;DHT22;8258;51.020;4.248;2023-09-07T01:15:33;18.30;99.90
16301;DHT22;8258;51.020;4.248;2023-09-07T01:18:01;18.30;99.90
16301;DHT22;8258;51.020;4.248;2023-09-07T01:20:30;18.30;99.90
16301;DHT22;8258;51.020;4.248;2023-09-07T01:23:00;18.20;99.90
16301;DHT22;8258;51.020;4.248;2023-09-07T01:25:27;18.10;99.90
16301;DHT22;8258;51.020;4.248;2023-09-07T01:27:55;18.10;99.90
16301;DHT22;8258;51.020;4.248;2023-09-07T01:30:22;18.10;99.90
16301;DHT22;8258;51.020;4.248;2023-09-07T01:32:49;18.10;99.90
16301;DHT22;8258;51.020;4.248;2023-09-07T01:35:16;18.10;99.90
16301;DHT22;8258;51.020;4.248;2023-09-07T01:37:47;18.00;99.90
16301;DHT22;8258;51.020;4.248;2023-09-07T01:40:15;18.00;99.90
16301;DHT22;8258;51.020;4.248;2023-09-07T01:42:42;18.00;99.90
16301;DHT22;8258;51.020;4.248;2023-09-07T01:45:09;17.90;99.90
16301;DHT22;8258;51.020;4.248;2023-09-07T01:47:36;17.80;99.90
16301;DHT22;8258;51.020;4.248;2023-09-07T01:50:04;17.80;99.90
16301;DHT22;8258;51.020;4.248;2023-09-07T01:52:31;17.80;99.90
16301;DHT22;8258;51.020;4.248;2023-09-07T01:54:58;17.80;99.90
16301;DHT22;8258;51.020;4.248;2023-09-07T01:57:26;17.70;99.90
16301;DHT22;8258;51.020;4.248;2023-09-07T01:59:53;17.70;99.90
16301;DHT22;8258;51.020;4.248;2023-09-07T02:02:20;17.70;99.90
16301;DHT22;8258;51.020;4.248;2023-09-07T02:04:47;17.70;99.90
16301;DHT22;8258;51.020;4.248;2023-09-07T02:07:14;17.80;99.90
16301;DHT22;8258;51.020;4.248;2023-09-07T02:14:46;17.80;99.90
16301;DHT22;8258;51.020;4.248;2023-09-07T02:17:13;17.70;99.90
16301;DHT22;8258;51.020;4.248;2023-09-07T02:19:43;17.70;99.90
16301;DHT22;8258;51.020;4.248;2023-09-07T02:22:10;17.60;99.90
16301;DHT22;8258;51.020;4.248;2023-09-07T02:24:37;17.60;99.90
16301;DHT22;8258;51.020;4.248;2023-09-07T02:27:04;17.60;99.90
16301;DHT22;8258;51.020;4.248;2023-09-07T02:29:31;17.60;99.90
16301;DHT22;8258;51.020;4.248;2023-09-07T02:31:59;17.60;99.90
16301;DHT22;8258;51.020;4.248;2023-09-07T02:34:26;17.60;99.90
16301;DHT22;8258;51.020;4.248;2023-09-07T02:36:53;17.50;99.90
16301;DHT22;8258;51.020;4.248;2023-09-07T02:39:20;17.50;99.90
16301;DHT22;8258;51.020;4.248;2023-09-07T02:41:47;17.40;99.90
16301;DHT22;8258;51.020;4.248;2023-09-07T02:44:14;17.40;99.90
16301;DHT22;8258;51.020;4.248;2023-09-07T02:46:41;17.40;99.90
16301;DHT22;8258;51.020;4.248;2023-09-07T02:49:09;17.40;99.90
16301;DHT22;8258;51.020;4.248;2023-09-07T02:51:36;17.40;99.90
16301;DHT22;8258;51.020;4.248;2023-09-07T02:54:04;17.30;99.90
16301;DHT22;8258;51.020;4.248;2023-09-07T02:56:31;17.20;99.90
16301;DHT22;8258;51.020;4.248;2023-09-07T02:58:58;17.20;99.90
16301;DHT22;8258;51.020;4.248;2023-09-07T03:01:25;17.10;99.90
16301;DHT22;8258;51.020;4.248;2023-09-07T03:03:52;17.00;99.90
16301;DHT22;8258;51.020;4.248;2023-09-07T03:06:21;17.10;99.90
16301;DHT22;8258;51.020;4.248;2023-09-07T03:08:47;17.00;99.90
16301;DHT22;8258;51.020;4.248;2023-09-07T03:11:14;16.90;99.90
16301;DHT22;8258;51.020;4.248;2023-09-07T03:13:41;16.90;99.90
16301;DHT22;8258;51.020;4.248;2023-09-07T03:16:09;16.80;99.90
16301;DHT22;8258;51.020;4.248;2023-09-07T03:18:36;16.80;99.90
16301;DHT22;8258;51.020;4.248;2023-09-07T03:21:03;16.80;99.90
16301;DHT22;8258;51.020;4.248;2023-09-07T03:23:32;16.80;99.90
16301;DHT22;8258;51.020;4.248;2023-09-07T03:25:59;16.70;99.90
16301;DHT22;8258;51.020;4.248;2023-09-07T03:28:26;16.70;99.90
16301;DHT22;8258;51.020;4.248;2023-09-07T03:30:54;16.70;99.90
16301;DHT22;8258;51.020;4.248;2023-09-07T03:33:21;16.70;99.90
16301;DHT22;8258;51.020;4.248;2023-09-07T03:35:48;16.70;99.90
16301;DHT22;8258;51.020;4.248;2023-09-07T03:38:17;16.70;99.90
16301;DHT22;8258;51.020;4.248;2023-09-07T03:40:45;16.70;99.90
16301;DHT22;8258;51.020;4.248;2023-09-07T03:43:12;16.60;99.90
16301;DHT22;8258;51.020;4.248;2023-09-07T03:45:39;16.60;99.90
16301;DHT22;8258;51.020;4.248;2023-09-07T03:48:06;16.70;99.90
16301;DHT22;8258;51.020;4.248;2023-09-07T03:50:35;16.50;99.90
16301;DHT22;8258;51.020;4.248;2023-09-07T03:53:02;16.60;99.90
16301;DHT22;8258;51.020;4.248;2023-09-07T03:55:30;16.50;99.90
16301;DHT22;8258;51.020;4.248;2023-09-07T03:57:58;16.50;99.90
16301;DHT22;8258;51.020;4.248;2023-09-07T04:00:26;16.50;99.90
16301;DHT22;8258;51.020;4.248;2023-09-07T04:02:53;16.50;99.90
16301;DHT22;8258;51.020;4.248;2023-09-07T04:05:22;16.40;99.90
16301;DHT22;8258;51.020;4.248;2023-09-07T04:07:50;16.40;99.90
16301;DHT22;8258;51.020;4.248;2023-09-07T04:10:17;16.50;99.90
16301;DHT22;8258;51.020;4.248;2023-09-07T04:12:45;16.50;99.90
16301;DHT22;8258;51.020;4.248;2023-09-07T04:15:13;16.40;99.90
16301;DHT22;8258;51.020;4.248;2023-09-07T04:17:41;16.30;99.90
16301;DHT22;8258;51.020;4.248;2023-09-07T04:20:09;16.30;99.90
16301;DHT22;8258;51.020;4.248;2023-09-07T04:22:38;16.30;99.90
16301;DHT22;8258;51.020;4.248;2023-09-07T04:25:05;16.30;99.90
16301;DHT22;8258;51.020;4.248;2023-09-07T04:27:32;16.30;99.90
16301;DHT22;8258;51.020;4.248;2023-09-07T04:30:00;16.30;99.90
16301;DHT22;8258;51.020;4.248;2023-09-07T04:32:28;16.40;99.90
16301;DHT22;8258;51.020;4.248;2023-09-07T04:34:55;16.40;99.90
16301;DHT22;8258;51.020;4.248;2023-09-07T04:37:24;16.40;99.90
16301;DHT22;8258;51.020;4.248;2023-09-07T04:39:52;16.40;99.90
16301;DHT22;8258;51.020;4.248;2023-09-07T04:42:19;16.40;99.90
16301;DHT22;8258;51.020;4.248;2023-09-07T04:44:47;16.40;99.90
16301;DHT22;8258;51.020;4.248;2023-09-07T04:47:15;16.40;99.90
16301;DHT22;8258;51.020;4.248;2023-09-07T04:49:48;16.40;99.90
16301;DHT22;8258;51.020;4.248;2023-09-07T04:52:15;16.30;99.90
16301;DHT22;8258;51.020;4.248;2023-09-07T04:54:43;16.20;99.90
16301;DHT22;8258;51.020;4.248;2023-09-07T04:57:10;16.10;99.90
16301;DHT22;8258;51.020;4.248;2023-09-07T04:59:37;16.10;99.90
16301;DHT22;8258;51.020;4.248;2023-09-07T05:02:04;16.00;99.90
16301;DHT22;8258;51.020;4.248;2023-09-07T05:04:31;16.00;99.90
16301;DHT22;8258;51.020;4.248;2023-09-07T05:06:59;16.00;99.90
16301;DHT22;8258;51.020;4.248;2023-09-07T05:09:26;16.00;99.90
16301;DHT22;8258;51.020;4.248;2023-09-07T05:11:55;16.00;99.90
16301;DHT22;8258;51.020;4.248;2023-09-07T05:14:22;16.00;99.90
16301;DHT22;8258;51.020;4.248;2023-09-07T05:16:49;16.00;99.90
16301;DHT22;8258;51.020;4.248;2023-09-07T05:19:16;16.00;99.90
16301;DHT22;8258;51.020;4.248;2023-09-07T05:21:43;16.00;99.90
16301;DHT22;8258;51.020;4.248;2023-09-07T05:24:13;16.10;99.90
16301;DHT22;8258;51.020;4.248;2023-09-07T05:26:41;16.10;99.90
16301;DHT22;8258;51.020;4.248;2023-09-07T05:29:09;16.20;99.90
16301;DHT22;8258;51.020;4.248;2023-09-07T05:31:36;16.20;99.90
16301;DHT22;8258;51.020;4.248;2023-09-07T05:34:03;16.20;99.90
16301;DHT22;8258;51.020;4.248;2023-09-07T05:36:30;16.30;99.90
16301;DHT22;8258;51.020;4.248;2023-09-07T05:38:57;16.20;99.90
16301;DHT22;8258;51.020;4.248;2023-09-07T05:41:26;16.30;99.90
16301;DHT22;8258;51.020;4.248;2023-09-07T05:43:53;16.30;99.90
16301;DHT22;8258;51.020;4.248;2023-09-07T05:46:20;16.40;99.90
16301;DHT22;8258;51.020;4.248;2023-09-07T05:48:47;16.40;99.90
16301;DHT22;8258;51.020;4.248;2023-09-07T05:51:14;16.40;99.90
16301;DHT22;8258;51.020;4.248;2023-09-07T05:53:41;16.50;99.90
16301;DHT22;8258;51.020;4.248;2023-09-07T05:56:08;16.50;99.90
16301;DHT22;8258;51.020;4.248;2023-09-07T05:58:36;16.60;99.90
16301;DHT22;8258;51.020;4.248;2023-09-07T06:01:03;16.60;99.90
16301;DHT22;8258;51.020;4.248;2023-09-07T06:03:31;16.70;99.90
16301;DHT22;8258;51.020;4.248;2023-09-07T06:05:58;16.70;99.90
16301;DHT22;8258;51.020;4.248;2023-09-07T06:08:25;16.80;99.90
16301;DHT22;8258;51.020;4.248;2023-09-07T06:10:53;16.90;99.90
16301;DHT22;8258;51.020;4.248;2023-09-07T06:13:20;17.20;99.90
16301;DHT22;8258;51.020;4.248;2023-09-07T06:15:49;17.50;99.90
16301;DHT22;8258;51.020;4.248;2023-09-07T06:18:15;18.20;99.90
16301;DHT22;8258;51.020;4.248;2023-09-07T06:20:42;18.70;99.90
16301;DHT22;8258;51.020;4.248;2023-09-07T06:23:12;19.00;99.90
16301;DHT22;8258;51.020;4.248;2023-09-07T06:25:39;19.40;99.90
16301;DHT22;8258;51.020;4.248;2023-09-07T06:28:07;19.70;99.90
16301;DHT22;8258;51.020;4.248;2023-09-07T06:30:34;19.90;99.90
16301;DHT22;8258;51.020;4.248;2023-09-07T06:33:02;20.20;99.90
16301;DHT22;8258;51.020;4.248;2023-09-07T06:35:29;20.30;99.90
16301;DHT22;8258;51.020;4.248;2023-09-07T06:37:56;20.50;99.90
16301;DHT22;8258;51.020;4.248;2023-09-07T06:40:23;20.60;99.90
16301;DHT22;8258;51.020;4.248;2023-09-07T06:42:51;20.80;99.90
16301;DHT22;8258;51.020;4.248;2023-09-07T06:45:19;21.00;99.90
16301;DHT22;8258;51.020;4.248;2023-09-07T06:47:49;21.50;99.90
16301;DHT22;8258;51.020;4.248;2023-09-07T06:50:18;21.50;99.90
16301;DHT22;8258;51.020;4.248;2023-09-07T06:52:45;22.10;99.90
16301;DHT22;8258;51.020;4.248;2023-09-07T06:55:12;22.20;99.90
16301;DHT22;8258;51.020;4.248;2023-09-07T06:57:39;22.90;99.90
16301;DHT22;8258;51.020;4.248;2023-09-07T07:00:07;23.70;99.90
16301;DHT22;8258;51.020;4.248;2023-09-07T07:02:34;24.50;99.90
16301;DHT22;8258;51.020;4.248;2023-09-07T07:05:01;24.40;99.90
16301;DHT22;8258;51.020;4.248;2023-09-07T07:07:31;24.60;99.90
16301;DHT22;8258;51.020;4.248;2023-09-07T07:09:58;25.10;99.90
16301;DHT22;8258;51.020;4.248;2023-09-07T07:12:25;24.70;99.90
16301;DHT22;8258;51.020;4.248;2023-09-07T07:14:52;24.80;99.90
16301;DHT22;8258;51.020;4.248;2023-09-07T07:17:19;24.60;99.90
16301;DHT22;8258;51.020;4.248;2023-09-07T07:19:47;24.50;99.90
16301;DHT22;8258;51.020;4.248;2023-09-07T07:22:14;24.20;99.90
16301;DHT22;8258;51.020;4.248;2023-09-07T07:24:42;24.60;99.90
16301;DHT22;8258;51.020;4.248;2023-09-07T07:27:09;25.00;99.90
16301;DHT22;8258;51.020;4.248;2023-09-07T07:29:37;25.50;99.90
16301;DHT22;8258;51.020;4.248;2023-09-07T07:32:04;26.00;99.90
16301;DHT22;8258;51.020;4.248;2023-09-07T07:34:31;26.80;99.90
16301;DHT22;8258;51.020;4.248;2023-09-07T07:36:58;27.40;99.90
16301;DHT22;8258;51.020;4.248;2023-09-07T07:39:25;27.20;99.90
16301;DHT22;8258;51.020;4.248;2023-09-07T07:41:54;27.60;99.90
16301;DHT22;8258;51.020;4.248;2023-09-07T07:44:21;28.10;99.90
16301;DHT22;8258;51.020;4.248;2023-09-07T07:46:47;28.60;99.90
16301;DHT22;8258;51.020;4.248;2023-09-07T07:49:14;29.60;99.90
16301;DHT22;8258;51.020;4.248;2023-09-07T07:51:41;28.50;99.90
16301;DHT22;8258;51.020;4.248;2023-09-07T07:54:08;28.30;99.90
16301;DHT22;8258;51.020;4.248;2023-09-07T07:56:35;28.70;99.90
16301;DHT22;8258;51.020;4.248;2023-09-07T07:59:03;28.40;99.90
16301;DHT22;8258;51.020;4.248;2023-09-07T08:01:30;27.80;99.90
16301;DHT22;8258;51.020;4.248;2023-09-07T08:03:57;28.00;99.90
16301;DHT22;8258;51.020;4.248;2023-09-07T08:06:24;28.50;99.90
16301;DHT22;8258;51.020;4.248;2023-09-07T08:08:51;29.40;99.90
16301;DHT22;8258;51.020;4.248;2023-09-07T08:11:18;29.50;99.90
16301;DHT22;8258;51.020;4.248;2023-09-07T08:13:47;28.50;99.90
16301;DHT22;8258;51.020;4.248;2023-09-07T08:16:15;28.10;99.90
16301;DHT22;8258;51.020;4.248;2023-09-07T08:18:43;28.40;99.90
16301;DHT22;8258;51.020;4.248;2023-09-07T08:21:10;28.90;99.90
16301;DHT22;8258;51.020;4.248;2023-09-07T08:23:37;28.90;99.90
16301;DHT22;8258;51.020;4.248;2023-09-07T08:26:05;28.70;99.90
16301;DHT22;8258;51.020;4.248;2023-09-07T08:28:32;29.00;99.90
16301;DHT22;8258;51.020;4.248;2023-09-07T08:30:59;30.10;98.50
16301;DHT22;8258;51.020;4.248;2023-09-07T08:33:28;29.70;98.00
16301;DHT22;8258;51.020;4.248;2023-09-07T08:35:56;29.50;99.40
16301;DHT22;8258;51.020;4.248;2023-09-07T08:38:25;30.00;97.80
16301;DHT22;8258;51.020;4.248;2023-09-07T08:40:53;30.60;97.00
16301;DHT22;8258;51.020;4.248;2023-09-07T08:43:21;30.90;95.60
16301;DHT22;8258;51.020;4.248;2023-09-07T08:45:51;31.30;94.70
16301;DHT22;8258;51.020;4.248;2023-09-07T08:48:26;30.50;94.10
16301;DHT22;8258;51.020;4.248;2023-09-07T08:50:56;30.50;94.70
16301;DHT22;8258;51.020;4.248;2023-09-07T08:53:24;30.70;94.20
16301;DHT22;8258;51.020;4.248;2023-09-07T08:55:51;30.50;94.30
16301;DHT22;8258;51.020;4.248;2023-09-07T08:58:18;31.10;93.20
16301;DHT22;8258;51.020;4.248;2023-09-07T09:00:45;30.90;91.30
16301;DHT22;8258;51.020;4.248;2023-09-07T09:03:14;30.30;93.10
16301;DHT22;8258;51.020;4.248;2023-09-07T09:05:43;30.30;93.10
16301;DHT22;8258;51.020;4.248;2023-09-07T09:08:12;30.20;92.70
16301;DHT22;8258;51.020;4.248;2023-09-07T09:10:39;30.90;92.20
16301;DHT22;8258;51.020;4.248;2023-09-07T09:13:07;31.60;91.30
16301;DHT22;8258;51.020;4.248;2023-09-07T09:15:34;32.00;89.50
16301;DHT22;8258;51.020;4.248;2023-09-07T09:18:09;31.60;89.80
16301;DHT22;8258;51.020;4.248;2023-09-07T09:20:38;32.50;87.10
16301;DHT22;8258;51.020;4.248;2023-09-07T09:23:05;33.10;82.10
16301;DHT22;8258;51.020;4.248;2023-09-07T09:25:34;33.30;79.60
16301;DHT22;8258;51.020;4.248;2023-09-07T09:28:01;33.10;77.30
16301;DHT22;8258;51.020;4.248;2023-09-07T09:30:29;32.30;76.50
16301;DHT22;8258;51.020;4.248;2023-09-07T09:32:56;32.20;77.70
16301;DHT22;8258;51.020;4.248;2023-09-07T09:35:23;32.50;74.00
16301;DHT22;8258;51.020;4.248;2023-09-07T09:37:50;32.60;73.40
16301;DHT22;8258;51.020;4.248;2023-09-07T09:40:18;32.60;71.50
16301;DHT22;8258;51.020;4.248;2023-09-07T09:42:46;32.30;70.20
16301;DHT22;8258;51.020;4.248;2023-09-07T09:45:14;32.10;69.20
16301;DHT22;8258;51.020;4.248;2023-09-07T09:47:42;32.00;69.70
16301;DHT22;8258;51.020;4.248;2023-09-07T09:50:10;32.40;70.40
16301;DHT22;8258;51.020;4.248;2023-09-07T09:52:38;31.90;70.40
16301;DHT22;8258;51.020;4.248;2023-09-07T09:55:06;32.50;69.60
16301;DHT22;8258;51.020;4.248;2023-09-07T09:57:38;33.20;65.80
16301;DHT22;8258;51.020;4.248;2023-09-07T10:00:09;34.00;64.20
16301;DHT22;8258;51.020;4.248;2023-09-07T10:02:49;34.80;62.20
16301;DHT22;8258;51.020;4.248;2023-09-07T10:05:18;34.80;60.70
16301;DHT22;8258;51.020;4.248;2023-09-07T10:07:47;35.40;58.80
16301;DHT22;8258;51.020;4.248;2023-09-07T10:10:15;35.30;54.30
16301;DHT22;8258;51.020;4.248;2023-09-07T10:12:43;34.40;55.70
16301;DHT22;8258;51.020;4.248;2023-09-07T10:15:29;33.90;57.30
16301;DHT22;8258;51.020;4.248;2023-09-07T10:18:06;34.30;58.20
16301;DHT22;8258;51.020;4.248;2023-09-07T10:20:48;35.50;53.90
16301;DHT22;8258;51.020;4.248;2023-09-07T10:23:15;35.60;50.30
16301;DHT22;8258;51.020;4.248;2023-09-07T10:25:42;34.90;51.40
16301;DHT22;8258;51.020;4.248;2023-09-07T10:28:21;34.70;50.70
16301;DHT22;8258;51.020;4.248;2023-09-07T10:31:00;34.90;51.80
16301;DHT22;8258;51.020;4.248;2023-09-07T10:33:29;34.50;52.70
16301;DHT22;8258;51.020;4.248;2023-09-07T10:35:56;34.80;51.00
16301;DHT22;8258;51.020;4.248;2023-09-07T10:38:23;34.70;51.50
16301;DHT22;8258;51.020;4.248;2023-09-07T10:40:56;35.00;50.40
16301;DHT22;8258;51.020;4.248;2023-09-07T10:43:26;34.70;49.50
16301;DHT22;8258;51.020;4.248;2023-09-07T10:45:53;35.00;50.00
16301;DHT22;8258;51.020;4.248;2023-09-07T10:48:23;34.10;49.90
16301;DHT22;8258;51.020;4.248;2023-09-07T10:50:51;34.30;50.50
16301;DHT22;8258;51.020;4.248;2023-09-07T10:53:25;35.30;48.80
16301;DHT22;8258;51.020;4.248;2023-09-07T10:55:53;36.30;47.90
16301;DHT22;8258;51.020;4.248;2023-09-07T10:58:26;37.10;45.90
16301;DHT22;8258;51.020;4.248;2023-09-07T11:00:54;37.70;42.50
16301;DHT22;8258;51.020;4.248;2023-09-07T11:03:23;36.80;41.60
16301;DHT22;8258;51.020;4.248;2023-09-07T11:05:52;37.30;43.50
16301;DHT22;8258;51.020;4.248;2023-09-07T11:08:19;36.70;41.00
16301;DHT22;8258;51.020;4.248;2023-09-07T11:10:46;36.40;43.00
16301;DHT22;8258;51.020;4.248;2023-09-07T11:13:13;36.60;41.70
16301;DHT22;8258;51.020;4.248;2023-09-07T11:15:43;37.40;40.00
16301;DHT22;8258;51.020;4.248;2023-09-07T11:18:10;37.50;41.40
16301;DHT22;8258;51.020;4.248;2023-09-07T11:20:38;37.20;39.60
16301;DHT22;8258;51.020;4.248;2023-09-07T11:23:06;37.20;39.70
16301;DHT22;8258;51.020;4.248;2023-09-07T11:25:37;37.70;38.50
16301;DHT22;8258;51.020;4.248;2023-09-07T11:28:04;38.10;36.00
16301;DHT22;8258;51.020;4.248;2023-09-07T11:30:32;37.10;36.10
16301;DHT22;8258;51.020;4.248;2023-09-07T11:33:04;36.50;37.20
16301;DHT22;8258;51.020;4.248;2023-09-07T11:35:31;35.70;39.10
16301;DHT22;8258;51.020;4.248;2023-09-07T11:38:01;36.20;37.80
16301;DHT22;8258;51.020;4.248;2023-09-07T11:40:34;36.60;37.20
16301;DHT22;8258;51.020;4.248;2023-09-07T11:43:01;37.30;36.70
16301;DHT22;8258;51.020;4.248;2023-09-07T11:45:27;37.30;37.20
16301;DHT22;8258;51.020;4.248;2023-09-07T11:47:55;37.20;35.40
16301;DHT22;8258;51.020;4.248;2023-09-07T11:50:23;36.60;35.20
16301;DHT22;8258;51.020;4.248;2023-09-07T11:52:51;36.20;36.80
16301;DHT22;8258;51.020;4.248;2023-09-07T11:55:19;36.40;37.90
16301;DHT22;8258;51.020;4.248;2023-09-07T11:57:46;37.10;36.80
16301;DHT22;8258;51.020;4.248;2023-09-07T12:00:15;36.70;36.40
16301;DHT22;8258;51.020;4.248;2023-09-07T12:02:42;36.10;36.40
16301;DHT22;8258;51.020;4.248;2023-09-07T12:05:09;36.20;36.30
16301;DHT22;8258;51.020;4.248;2023-09-07T12:07:40;36.00;35.70
16301;DHT22;8258;51.020;4.248;2023-09-07T12:10:09;35.80;36.70
16301;DHT22;8258;51.020;4.248;2023-09-07T12:12:40;36.40;35.70
16301;DHT22;8258;51.020;4.248;2023-09-07T12:15:09;37.40;34.40
16301;DHT22;8258;51.020;4.248;2023-09-07T12:17:37;37.60;33.20
16301;DHT22;8258;51.020;4.248;2023-09-07T12:20:05;38.30;33.10
16301;DHT22;8258;51.020;4.248;2023-09-07T12:22:35;37.90;33.00
16301;DHT22;8258;51.020;4.248;2023-09-07T12:25:03;38.80;31.50
16301;DHT22;8258;51.020;4.248;2023-09-07T12:27:32;38.40;30.90
16301;DHT22;8258;51.020;4.248;2023-09-07T12:30:02;37.60;32.40
16301;DHT22;8258;51.020;4.248;2023-09-07T12:32:32;38.20;30.60
16301;DHT22;8258;51.020;4.248;2023-09-07T12:34:59;38.40;31.40
16301;DHT22;8258;51.020;4.248;2023-09-07T12:37:26;37.60;31.10
16301;DHT22;8258;51.020;4.248;2023-09-07T12:39:53;37.80;30.40
16301;DHT22;8258;51.020;4.248;2023-09-07T12:42:20;38.00;29.60
16301;DHT22;8258;51.020;4.248;2023-09-07T12:44:48;38.80;28.30
16301;DHT22;8258;51.020;4.248;2023-09-07T12:47:16;39.20;27.80
16301;DHT22;8258;51.020;4.248;2023-09-07T12:49:43;38.80;27.20
16301;DHT22;8258;51.020;4.248;2023-09-07T12:52:10;38.40;29.80
16301;DHT22;8258;51.020;4.248;2023-09-07T12:54:38;38.40;29.70
16301;DHT22;8258;51.020;4.248;2023-09-07T12:57:05;38.20;29.40
16301;DHT22;8258;51.020;4.248;2023-09-07T12:59:33;37.30;29.00
16301;DHT22;8258;51.020;4.248;2023-09-07T13:01:59;37.40;29.60
16301;DHT22;8258;51.020;4.248;2023-09-07T13:04:28;37.60;29.60
16301;DHT22;8258;51.020;4.248;2023-09-07T13:06:55;37.60;29.30
16301;DHT22;8258;51.020;4.248;2023-09-07T13:09:22;37.30;29.20
16301;DHT22;8258;51.020;4.248;2023-09-07T13:11:49;36.90;29.80
16301;DHT22;8258;51.020;4.248;2023-09-07T13:14:16;38.00;31.40
16301;DHT22;8258;51.020;4.248;2023-09-07T13:16:43;39.40;28.30
16301;DHT22;8258;51.020;4.248;2023-09-07T13:19:10;40.60;26.90
16301;DHT22;8258;51.020;4.248;2023-09-07T13:21:39;40.30;25.90
16301;DHT22;8258;51.020;4.248;2023-09-07T13:24:06;40.20;26.90
16301;DHT22;8258;51.020;4.248;2023-09-07T13:26:33;39.80;26.00
16301;DHT22;8258;51.020;4.248;2023-09-07T13:29:00;40.20;27.00
16301;DHT22;8258;51.020;4.248;2023-09-07T13:31:27;40.60;24.90
16301;DHT22;8258;51.020;4.248;2023-09-07T13:33:54;40.20;26.10
16301;DHT22;8258;51.020;4.248;2023-09-07T13:36:20;40.50;25.40
16301;DHT22;8258;51.020;4.248;2023-09-07T13:38:49;40.50;24.90
16301;DHT22;8258;51.020;4.248;2023-09-07T13:41:16;40.00;24.60
16301;DHT22;8258;51.020;4.248;2023-09-07T13:43:43;40.10;25.30
16301;DHT22;8258;51.020;4.248;2023-09-07T13:46:09;40.10;25.10
16301;DHT22;8258;51.020;4.248;2023-09-07T13:48:36;39.20;25.60
16301;DHT22;8258;51.020;4.248;2023-09-07T13:51:03;38.40;26.60
16301;DHT22;8258;51.020;4.248;2023-09-07T13:53:31;39.10;26.20
16301;DHT22;8258;51.020;4.248;2023-09-07T13:56:00;39.30;25.20
16301;DHT22;8258;51.020;4.248;2023-09-07T13:58:27;39.50;25.60
16301;DHT22;8258;51.020;4.248;2023-09-07T14:00:54;40.00;26.10
16301;DHT22;8258;51.020;4.248;2023-09-07T14:03:20;40.10;25.20
16301;DHT22;8258;51.020;4.248;2023-09-07T14:05:47;40.20;25.00
16301;DHT22;8258;51.020;4.248;2023-09-07T14:08:14;40.60;25.40
16301;DHT22;8258;51.020;4.248;2023-09-07T14:10:42;40.70;26.10
16301;DHT22;8258;51.020;4.248;2023-09-07T14:13:11;41.40;25.80
16301;DHT22;8258;51.020;4.248;2023-09-07T14:15:38;42.20;24.20
16301;DHT22;8258;51.020;4.248;2023-09-07T14:18:05;41.20;25.40
16301;DHT22;8258;51.020;4.248;2023-09-07T14:20:33;40.10;25.70
16301;DHT22;8258;51.020;4.248;2023-09-07T14:23:00;40.00;26.00
16301;DHT22;8258;51.020;4.248;2023-09-07T14:25:27;40.30;25.20
16301;DHT22;8258;51.020;4.248;2023-09-07T14:27:54;39.80;25.20
16301;DHT22;8258;51.020;4.248;2023-09-07T14:30:23;39.70;26.20
16301;DHT22;8258;51.020;4.248;2023-09-07T14:32:50;40.50;24.90
16301;DHT22;8258;51.020;4.248;2023-09-07T14:35:16;41.10;24.50
16301;DHT22;8258;51.020;4.248;2023-09-07T14:37:43;41.00;25.20
16301;DHT22;8258;51.020;4.248;2023-09-07T14:40:11;40.10;24.50
16301;DHT22;8258;51.020;4.248;2023-09-07T14:42:39;39.50;25.00
16301;DHT22;8258;51.020;4.248;2023-09-07T14:45:07;39.10;25.90
16301;DHT22;8258;51.020;4.248;2023-09-07T14:47:35;39.80;26.50
16301;DHT22;8258;51.020;4.248;2023-09-07T14:50:02;41.10;25.80
16301;DHT22;8258;51.020;4.248;2023-09-07T14:52:29;41.20;24.10
16301;DHT22;8258;51.020;4.248;2023-09-07T14:54:57;41.30;24.40
16301;DHT22;8258;51.020;4.248;2023-09-07T14:57:25;41.60;24.50
16301;DHT22;8258;51.020;4.248;2023-09-07T14:59:52;41.60;24.40
16301;DHT22;8258;51.020;4.248;2023-09-07T15:02:19;40.50;24.10
16301;DHT22;8258;51.020;4.248;2023-09-07T15:04:47;40.30;25.20
16301;DHT22;8258;51.020;4.248;2023-09-07T15:07:14;40.00;25.10
16301;DHT22;8258;51.020;4.248;2023-09-07T15:09:41;40.50;25.40
16301;DHT22;8258;51.020;4.248;2023-09-07T15:12:08;39.90;25.50
16301;DHT22;8258;51.020;4.248;2023-09-07T15:14:36;40.10;26.20
16301;DHT22;8258;51.020;4.248;2023-09-07T15:17:03;40.10;25.20
16301;DHT22;8258;51.020;4.248;2023-09-07T15:19:30;38.90;25.60
16301;DHT22;8258;51.020;4.248;2023-09-07T15:22:01;37.60;28.10
16301;DHT22;8258;51.020;4.248;2023-09-07T15:24:28;38.10;27.50
16301;DHT22;8258;51.020;4.248;2023-09-07T15:26:54;38.60;27.50
16301;DHT22;8258;51.020;4.248;2023-09-07T15:29:21;38.40;26.70
16301;DHT22;8258;51.020;4.248;2023-09-07T15:31:48;37.40;28.40
16301;DHT22;8258;51.020;4.248;2023-09-07T15:34:16;36.00;29.20
16301;DHT22;8258;51.020;4.248;2023-09-07T15:36:44;35.10;31.90
16301;DHT22;8258;51.020;4.248;2023-09-07T15:39:12;34.00;34.40
16301;DHT22;8258;51.020;4.248;2023-09-07T15:41:39;33.60;36.50
16301;DHT22;8258;51.020;4.248;2023-09-07T15:44:06;33.20;38.20
16301;DHT22;8258;51.020;4.248;2023-09-07T15:46:33;33.10;38.90
16301;DHT22;8258;51.020;4.248;2023-09-07T15:49:00;32.60;39.70
16301;DHT22;8258;51.020;4.248;2023-09-07T15:51:27;32.40;41.90
16301;DHT22;8258;51.020;4.248;2023-09-07T15:53:54;32.10;42.80